Time;durP1;ratioP1;P1;durP2;ratioP2;P2;SDS_P1;SDS_P2;PMS_P1;PMS_P2;Temp;Humidity;BMP_temperature;BMP_pressure;BME280_temperature;BME280_humidity;BME280_pressure;Samples;Min_cycle;Max_cycle;Signal;HPM_P1;HPM_P2
2022/03/21 00:00:59;;;;;;;96.45;47.40;;;;;;;-1.22;57.59;102874.34;1744674;82;20869;-74
2022/03/21 00:03:31;;;;;;;138.40;68.22;;;;;;;-1.23;57.50;102864.47;1744660;82;20858;-74
2022/03/21 00:05:58;;;;;;;109.70;52.58;;;;;;;-1.23;57.41;102863.61;1744683;81;21407;-73
2022/03/21 00:08:27;;;;;;;112.80;53.15;;;;;;;-1.24;57.41;102864.03;1744693;82;20912;-74
2022/03/21 00:10:56;;;;;;;109.07;54.30;;;;;;;-1.24;57.46;102855.02;1744731;80;21016;-74
2022/03/21 00:13:23;;;;;;;111.05;53.42;;;;;;;-1.23;57.55;102854.17;1744687;82;20909;-74
2022/03/21 00:15:52;;;;;;;117.72;56.40;;;;;;;-1.26;57.68;102852.41;1744838;82;20933;-75
2022/03/21 00:18:23;;;;;;;111.92;51.08;;;;;;;-1.31;57.64;102852.72;1744846;81;21335;-74
2022/03/21 00:20:53;;;;;;;71.40;34.67;;;;;;;-1.40;57.60;102852.48;1744787;81;20975;-74
2022/03/21 00:23:21;;;;;;;70.30;37.08;;;;;;;-1.49;57.81;102844.50;1744563;82;20896;-75
2022/03/21 00:25:50;;;;;;;80.80;38.05;;;;;;;-1.57;57.61;102839.17;1744740;82;21446;-74
2022/03/21 00:28:18;;;;;;;77.35;38.70;;;;;;;-1.59;57.75;102841.26;1744660;82;20932;-74
2022/03/21 00:30:45;;;;;;;80.80;42.83;;;;;;;-1.61;57.61;102836.06;1744683;82;20921;-75
2022/03/21 00:33:13;;;;;;;79.25;41.15;;;;;;;-1.59;57.65;102831.83;1746833;81;21116;-75
2022/03/21 00:35:42;;;;;;;84.07;42.78;;;;;;;-1.55;57.61;102829.80;1744716;81;21422;-74
2022/03/21 00:38:14;;;;;;;71.47;36.48;;;;;;;-1.55;57.56;102827.64;1744690;82;20988;-74
2022/03/21 00:40:47;;;;;;;64.10;34.63;;;;;;;-1.56;57.53;102824.59;1744728;81;20971;-74
2022/03/21 00:43:17;;;;;;;63.73;33.02;;;;;;;-1.56;57.60;102827.17;1744835;81;21008;-74
2022/03/21 00:45:45;;;;;;;64.40;33.58;;;;;;;-1.54;57.41;102825.09;1744745;81;21123;-76
2022/03/21 00:48:13;;;;;;;70.32;32.42;;;;;;;-1.51;57.38;102814.89;1744680;82;20952;-74
2022/03/21 00:50:40;;;;;;;61.73;30.08;;;;;;;-1.47;57.52;102818.01;1744639;81;20948;-74
2022/03/21 00:53:08;;;;;;;64.40;33.33;;;;;;;-1.46;57.62;102815.88;1744704;82;20909;-74
2022/03/21 00:55:35;;;;;;;64.67;32.38;;;;;;;-1.44;57.40;102821.06;1744978;82;21328;-74
2022/03/21 00:58:03;;;;;;;55.23;27.90;;;;;;;-1.43;57.41;102827.08;1744699;82;21512;-73
2022/03/21 01:00:31;;;;;;;49.27;26.52;;;;;;;-1.47;57.40;102836.41;1734485;82;20944;-73
2022/03/21 01:03:00;;;;;;;54.63;28.10;;;;;;;-1.47;57.27;102835.12;1744603;82;20902;-74
2022/03/21 01:05:29;;;;;;;55.15;28.70;;;;;;;-1.46;57.05;102834.31;1744755;82;21023;-74
2022/03/21 01:07:58;;;;;;;46.35;26.52;;;;;;;-1.50;56.91;102837.20;1744686;82;20826;-74
2022/03/21 01:10:27;;;;;;;49.27;27.37;;;;;;;-1.52;57.01;102844.02;1744699;82;20833;-74
2022/03/21 01:12:55;;;;;;;55.25;27.93;;;;;;;-1.56;57.24;102832.32;1744674;80;20889;-73
2022/03/21 01:15:25;;;;;;;85.65;43.10;;;;;;;-1.62;57.54;102830.86;1744664;81;20893;-73
2022/03/21 01:17:54;;;;;;;146.02;65.42;;;;;;;-1.69;57.69;102825.59;1744639;81;21398;-74
2022/03/21 01:20:21;;;;;;;150.27;68.55;;;;;;;-1.71;57.81;102815.67;1744636;80;20908;-74
2022/03/21 01:22:49;;;;;;;115.03;50.70;;;;;;;-1.72;57.83;102817.77;1744564;82;21853;-74
2022/03/21 01:25:18;;;;;;;77.62;37.83;;;;;;;-1.72;57.91;102815.62;1744639;81;21386;-74
2022/03/21 01:27:45;;;;;;;63.50;32.30;;;;;;;-1.69;57.77;102827.26;1744862;82;20916;-74
2022/03/21 01:30:14;;;;;;;61.37;31.57;;;;;;;-1.67;57.71;102820.45;1744616;82;21454;-73
2022/03/21 01:32:43;;;;;;;60.25;30.15;;;;;;;-1.67;57.71;102823.92;1744744;81;20901;-74
2022/03/21 01:35:11;;;;;;;57.30;30.02;;;;;;;-1.66;57.80;102827.36;1748440;81;21168;-73
2022/03/21 01:37:38;;;;;;;57.60;28.25;;;;;;;-1.65;57.91;102825.66;1757849;80;20995;-73
2022/03/21 01:40:08;;;;;;;65.55;33.02;;;;;;;-1.63;58.06;102826.14;1757917;80;20931;-73
2022/03/21 01:42:39;;;;;;;65.80;33.55;;;;;;;-1.61;58.11;102826.19;1757871;81;21414;-74
2022/03/21 01:45:08;;;;;;;69.17;33.20;;;;;;;-1.60;58.19;102824.95;1758225;81;20884;-74
2022/03/21 01:47:35;;;;;;;59.75;31.60;;;;;;;-1.64;58.28;102805.55;1757752;81;21116;-73
2022/03/21 01:50:03;;;;;;;84.17;37.23;;;;;;;-1.69;58.04;102802.44;1757879;81;20934;-73
2022/03/21 01:52:31;;;;;;;95.40;38.05;;;;;;;-1.68;58.07;102810.59;1758611;81;20900;-72
2022/03/21 01:57:39;;;;;;;54.18;23.67;;;;;;;-1.65;57.97;102799.93;1683872;85;20958;-74
2022/03/21 02:00:08;;;;;;;60.58;27.75;;;;;;;-1.65;57.94;102792.22;1684073;85;21279;-73
2022/03/21 02:02:43;;;;;;;47.27;23.87;;;;;;;-1.62;57.71;102795.75;1683968;85;21000;-73
2022/03/21 02:05:10;;;;;;;53.33;25.08;;;;;;;-1.56;57.83;102789.87;1683982;85;20916;-74
2022/03/21 02:07:37;;;;;;;52.62;23.92;;;;;;;-1.52;57.73;102795.55;1683908;85;21422;-72
2022/03/21 02:10:05;;;;;;;47.48;21.82;;;;;;;-1.49;57.19;102790.08;1684302;85;20880;-74
2022/03/21 02:12:34;;;;;;;75.12;33.45;;;;;;;-1.43;56.86;102788.06;1683974;85;20924;-73
2022/03/21 02:15:07;;;;;;;76.12;33.08;;;;;;;-1.34;57.13;102778.41;1683867;85;20968;-73
2022/03/21 02:17:35;;;;;;;47.53;21.55;;;;;;;-1.26;57.34;102775.61;1684072;85;20916;-74
2022/03/21 02:20:06;;;;;;;41.80;21.30;;;;;;;-1.19;56.82;102768.48;1683966;85;20994;-72
2022/03/21 02:22:44;;;;;;;32.40;17.37;;;;;;;-1.15;56.62;102766.86;1683967;85;20884;-75
2022/03/21 02:25:32;;;;;;;31.50;17.42;;;;;;;-1.12;56.36;102778.50;1683969;85;21274;-74
2022/03/21 02:28:06;;;;;;;60.08;27.30;;;;;;;-1.10;56.00;102778.98;1683920;85;21069;-75
2022/03/21 02:30:36;;;;;;;69.75;29.45;;;;;;;-1.05;56.22;102772.65;1684114;85;20955;-74
2022/03/21 02:33:04;;;;;;;62.15;28.52;;;;;;;-1.00;56.66;102771.47;1703554;81;20912;-74
2022/03/21 02:35:33;;;;;;;66.17;31.23;;;;;;;-0.95;56.89;102770.75;1752804;80;20980;-74
2022/03/21 02:38:01;;;;;;;68.00;29.00;;;;;;;-0.95;56.71;102759.16;1744765;81;21156;-74
2022/03/21 02:40:30;;;;;;;65.92;28.92;;;;;;;-0.93;56.91;102758.78;1744536;81;20901;-72
2022/03/21 02:42:57;;;;;;;76.22;33.53;;;;;;;-0.94;56.65;102758.31;1744821;81;21395;-73
2022/03/21 02:45:24;;;;;;;69.45;31.42;;;;;;;-0.94;56.73;102760.02;1744508;82;20932;-74
2022/03/21 02:47:51;;;;;;;57.03;24.35;;;;;;;-0.96;56.62;102761.69;1744519;81;20933;-74
2022/03/21 02:50:43;;;;;;;66.07;27.55;;;;;;;-0.99;56.57;102759.06;1744855;82;21218;-74
2022/03/21 02:53:12;;;;;;;50.23;22.75;;;;;;;-1.01;56.84;102749.14;1744506;82;21043;-74
2022/03/21 02:55:40;;;;;;;49.13;23.70;;;;;;;-1.06;56.78;102755.48;1744530;80;20936;-74
2022/03/21 02:58:07;;;;;;;43.85;21.52;;;;;;;-1.09;56.71;102752.42;1744442;81;20873;-74
2022/03/21 03:00:35;;;;;;;55.83;27.58;;;;;;;-1.09;56.81;102753.70;1744607;82;20874;-74
2022/03/21 03:03:02;;;;;;;47.78;23.80;;;;;;;-1.12;56.83;102754.91;1744512;81;21120;-74
2022/03/21 03:05:30;;;;;;;49.70;24.32;;;;;;;-1.11;57.04;102762.20;1744463;81;21434;-74
2022/03/21 03:07:57;;;;;;;47.88;24.30;;;;;;;-1.12;57.29;102752.33;1744650;82;20854;-74
2022/03/21 03:10:25;;;;;;;40.20;20.08;;;;;;;-1.13;57.09;102749.32;1744424;82;21385;-74
2022/03/21 03:12:52;;;;;;;43.48;22.67;;;;;;;-1.15;56.98;102750.12;1744567;81;20949;-74
2022/03/21 03:15:19;;;;;;;37.83;20.50;;;;;;;-1.16;57.01;102745.80;1745224;81;21193;-74
2022/03/21 03:17:48;;;;;;;50.17;25.23;;;;;;;-1.15;57.21;102738.54;1744527;82;20878;-74
2022/03/21 03:20:15;;;;;;;50.15;29.30;;;;;;;-1.14;57.52;102734.69;1744603;82;20968;-75
2022/03/21 03:22:42;;;;;;;52.33;27.73;;;;;;;-1.12;57.54;102729.16;1744707;81;20964;-75
2022/03/21 03:25:11;;;;;;;72.35;33.15;;;;;;;-1.10;57.68;102727.48;1734374;82;20913;-74
2022/03/21 03:27:38;;;;;;;98.47;42.40;;;;;;;-1.09;57.91;102726.67;1744706;82;21139;-73
2022/03/21 03:30:06;;;;;;;92.27;39.60;;;;;;;-1.09;57.79;102723.20;1744645;82;20909;-74
2022/03/21 03:32:33;;;;;;;74.37;32.70;;;;;;;-1.09;57.69;102721.92;1744846;82;21439;-72
2022/03/21 03:35:00;;;;;;;65.75;29.65;;;;;;;-1.12;57.55;102725.30;1744501;82;21485;-74
2022/03/21 03:37:27;;;;;;;47.90;21.97;;;;;;;-1.15;57.56;102727.81;1744627;81;20873;-74
2022/03/21 03:39:54;;;;;;;42.45;22.17;;;;;;;-1.12;57.23;102719.28;1744690;82;21806;-73
2022/03/21 03:42:21;;;;;;;41.63;21.60;;;;;;;-1.09;57.22;102725.38;1744548;82;20936;-73
2022/03/21 03:44:48;;;;;;;31.52;17.57;;;;;;;-1.08;57.27;102724.53;1744590;82;20896;-74
2022/03/21 03:47:15;;;;;;;54.55;29.35;;;;;;;-1.05;57.02;102713.43;1744950;81;21172;-74
2022/03/21 03:49:43;;;;;;;45.95;23.75;;;;;;;-1.01;57.21;102711.80;1744716;82;21422;-73
2022/03/21 03:52:10;;;;;;;48.73;23.60;;;;;;;-0.95;57.44;102711.94;1744639;80;21760;-73
2022/03/21 03:54:37;;;;;;;43.45;23.07;;;;;;;-0.91;57.60;102706.89;1744798;81;20897;-73
2022/03/21 03:57:06;;;;;;;37.67;19.62;;;;;;;-0.89;57.61;102707.79;1744690;80;20861;-72
2022/03/21 03:59:33;;;;;;;37.40;16.95;;;;;;;-0.88;57.46;102704.80;1744635;81;20944;-73
2022/03/21 04:02:01;;;;;;;32.30;17.73;;;;;;;-0.89;57.40;102701.75;1744698;82;20941;-72
2022/03/21 04:04:29;;;;;;;31.07;16.50;;;;;;;-0.84;57.14;102697.16;1744680;82;21125;-74
2022/03/21 04:06:56;;;;;;;28.27;14.05;;;;;;;-0.82;57.20;102699.78;1744754;82;20889;-73
2022/03/21 04:09:24;;;;;;;28.42;15.25;;;;;;;-0.80;56.86;102699.78;1744563;82;20916;-74
2022/03/21 04:11:51;;;;;;;26.10;15.78;;;;;;;-0.77;56.64;102705.88;1744653;82;20948;-74
2022/03/21 04:14:20;;;;;;;28.23;15.63;;;;;;;-0.71;56.68;102703.44;1744686;82;21454;-74
2022/03/21 04:16:48;;;;;;;28.20;16.10;;;;;;;-0.65;56.85;102707.40;1744674;82;21132;-74
2022/03/21 04:19:15;;;;;;;28.20;14.25;;;;;;;-0.56;56.54;102711.87;1744583;80;20917;-75
2022/03/21 04:21:43;;;;;;;28.85;15.08;;;;;;;-0.49;56.29;102703.45;1744671;81;21351;-74
2022/03/21 04:24:12;;;;;;;35.98;17.52;;;;;;;-0.40;56.24;102713.47;1744652;82;21000;-73
2022/03/21 04:26:39;;;;;;;36.25;19.80;;;;;;;-0.30;56.41;102723.12;1744558;82;20984;-74
2022/03/21 04:29:07;;;;;;;35.63;20.08;;;;;;;-0.15;56.56;102718.25;1745055;80;21175;-72
2022/03/21 04:31:34;;;;;;;39.15;20.05;;;;;;;0.07;57.63;102719.51;1744606;82;20916;-75
2022/03/21 04:34:01;;;;;;;47.67;22.80;;;;;;;0.29;57.20;102705.27;1744605;82;20976;-74
2022/03/21 04:36:29;;;;;;;51.68;22.73;;;;;;;0.47;56.73;102708.95;1744700;81;21478;-75
2022/03/21 04:38:56;;;;;;;47.58;23.00;;;;;;;0.65;56.31;102700.65;1744636;81;20865;-74
2022/03/21 04:41:23;;;;;;;45.50;24.15;;;;;;;0.89;56.28;102703.58;1744578;82;21120;-73
2022/03/21 04:43:50;;;;;;;45.12;23.65;;;;;;;1.12;56.11;102706.45;1744488;81;20991;-75
2022/03/21 04:46:18;;;;;;;41.45;21.65;;;;;;;1.36;55.71;102707.19;1744966;82;20928;-74
2022/03/21 04:48:45;;;;;;;40.35;21.62;;;;;;;1.62;55.26;102711.77;1744600;82;20873;-73
2022/03/21 04:51:12;;;;;;;43.68;22.70;;;;;;;1.90;54.84;102715.95;1744973;82;20988;-73
2022/03/21 04:53:41;;;;;;;42.27;22.67;;;;;;;2.15;54.54;102716.61;1744684;82;21479;-75
2022/03/21 04:56:09;;;;;;;46.25;22.67;;;;;;;2.43;54.13;102719.02;1744596;82;20971;-74
2022/03/21 04:58:36;;;;;;;36.65;19.20;;;;;;;2.79;53.65;102723.15;1744780;82;20841;-73
2022/03/21 05:01:03;;;;;;;42.35;22.80;;;;;;;3.22;52.90;102731.15;1744612;82;20889;-74
2022/03/21 05:03:32;;;;;;;35.20;19.00;;;;;;;3.82;52.43;102722.27;1745349;82;20984;-75
2022/03/21 05:05:59;;;;;;;35.20;18.15;;;;;;;4.54;51.15;102719.73;1744901;81;21246;-74
2022/03/21 05:08:26;;;;;;;42.10;20.92;;;;;;;5.29;49.29;102723.45;1744759;81;20936;-73
2022/03/21 05:10:56;;;;;;;39.67;19.12;;;;;;;5.97;47.50;102722.66;1744798;82;20916;-74
2022/03/21 05:13:23;;;;;;;33.98;19.50;;;;;;;6.62;46.32;102718.22;1744746;82;20964;-74
2022/03/21 05:15:50;;;;;;;31.33;17.85;;;;;;;7.20;44.75;102715.41;1744620;82;20937;-74
2022/03/21 05:18:17;;;;;;;26.33;17.05;;;;;;;7.80;43.62;102719.84;1745023;82;21120;-73
2022/03/21 05:20:45;;;;;;;32.93;16.07;;;;;;;8.33;42.92;102715.52;1744913;81;20845;-74
2022/03/21 05:31:29;;;;;;;27.20;16.62;;;;;;;9.98;38.85;102707.84;1744681;82;21576;-74
2022/03/21 05:36:42;;;;;;;23.12;14.28;;;;;;;10.16;38.34;102708.73;1744496;82;20956;-74
2022/03/21 05:39:09;;;;;;;21.10;15.65;;;;;;;10.35;38.12;102711.77;1744915;82;21529;-74
2022/03/21 05:41:36;;;;;;;21.30;14.78;;;;;;;10.54;37.50;102699.05;1744610;81;20902;-75
2022/03/21 05:44:04;;;;;;;20.92;14.45;;;;;;;10.72;37.17;102702.09;1744588;81;21152;-74
2022/03/21 05:46:31;;;;;;;20.20;13.70;;;;;;;10.81;36.50;102693.97;1744463;81;21046;-74
2022/03/21 05:49:00;;;;;;;18.15;13.08;;;;;;;10.94;36.40;102697.11;1744562;82;21012;-74
2022/03/21 05:51:34;;;;;;;15.08;12.75;;;;;;;11.22;35.95;102695.00;1744746;82;21007;-73
2022/03/21 05:54:05;;;;;;;16.20;13.08;;;;;;;11.57;35.56;102690.84;1744588;81;20987;-74
2022/03/21 05:56:32;;;;;;;17.67;14.30;;;;;;;11.94;35.35;102695.42;1745318;81;21070;-73
2022/03/21 06:00:20;;;;;;;20.82;14.05;;;;;;;12.29;34.31;102693.41;1744631;81;21434;-74
2022/03/21 06:01:29;;;;;;;21.20;15.08;;;;;;;12.58;33.80;102691.97;1743065;82;20917;-74
2022/03/21 06:03:57;;;;;;;24.23;14.10;;;;;;;13.00;33.14;102698.34;1744663;82;20857;-74
2022/03/21 06:06:24;;;;;;;17.92;15.08;;;;;;;13.39;32.80;102697.34;1745057;80;20924;-74
2022/03/21 06:08:51;;;;;;;18.45;13.58;;;;;;;13.80;31.94;102701.91;1744817;80;21132;-75
2022/03/21 06:11:19;;;;;;;18.15;12.80;;;;;;;14.09;31.69;102697.64;1744647;82;20865;-75
2022/03/21 06:13:47;;;;;;;18.95;13.03;;;;;;;14.35;30.95;102702.73;1744617;81;21367;-74
2022/03/21 06:16:15;;;;;;;16.57;12.85;;;;;;;14.54;30.86;102697.07;1744590;82;21363;-75
2022/03/21 06:18:42;;;;;;;17.82;14.23;;;;;;;14.79;30.55;102694.23;1744681;81;21489;-74
2022/03/21 06:21:09;;;;;;;16.57;13.70;;;;;;;15.09;30.01;102693.77;1744839;81;21223;-75
2022/03/21 06:23:36;;;;;;;18.10;14.55;;;;;;;15.37;29.45;102697.31;1744701;82;20849;-73
2022/03/21 06:26:04;;;;;;;15.95;14.07;;;;;;;15.59;29.13;102690.55;1744483;81;20928;-76
2022/03/21 06:28:31;;;;;;;17.40;14.33;;;;;;;15.80;28.54;102694.44;1744807;82;20953;-74
2022/03/21 06:30:58;;;;;;;15.28;13.22;;;;;;;16.04;28.40;102688.40;1744583;82;20920;-75
2022/03/21 06:33:29;;;;;;;17.42;13.62;;;;;;;16.28;28.18;102695.11;1744581;81;21066;-74
2022/03/21 06:35:57;;;;;;;15.05;12.98;;;;;;;16.56;27.64;102700.30;1744846;82;21347;-74
2022/03/21 06:38:24;;;;;;;16.07;13.18;;;;;;;16.89;27.18;102700.34;1755993;81;20979;-75
2022/03/21 06:40:51;;;;;;;14.33;12.80;;;;;;;17.20;27.04;102696.88;1757787;80;21433;-74
2022/03/21 06:43:22;;;;;;;13.78;12.07;;;;;;;17.43;26.64;102701.86;1757939;81;21022;-76
2022/03/21 06:45:54;;;;;;;18.48;13.03;;;;;;;17.64;26.54;102702.47;1757889;81;21847;-73
2022/03/21 06:48:24;;;;;;;21.05;13.08;;;;;;;17.77;26.51;102701.68;1756505;81;20853;-75
2022/03/21 06:50:55;;;;;;;16.62;14.33;;;;;;;17.91;26.06;102700.06;1758027;81;21311;-76
2022/03/21 06:53:22;;;;;;;16.32;13.65;;;;;;;18.09;25.70;102695.00;1758001;81;20976;-76
2022/03/21 06:55:50;;;;;;;15.98;12.98;;;;;;;18.18;25.26;102695.78;1757986;81;20987;-75
2022/03/21 06:58:17;;;;;;;16.48;13.60;;;;;;;18.42;25.38;102700.59;1757913;80;21262;-76
2022/03/21 07:00:46;;;;;;;15.50;13.38;;;;;;;18.64;25.05;102693.02;1757924;81;21414;-77
2022/03/21 07:03:19;;;;;;;14.78;13.18;;;;;;;18.80;24.64;102695.63;1758054;81;20951;-76
2022/03/21 07:05:46;;;;;;;17.80;13.78;;;;;;;18.93;24.44;102694.87;1758101;81;20944;-76
2022/03/21 07:08:14;;;;;;;17.55;13.28;;;;;;;19.02;24.27;102691.16;1758018;81;21029;-77
2022/03/21 07:10:44;;;;;;;18.05;13.35;;;;;;;19.18;24.04;102688.86;1757976;81;21818;-76
2022/03/21 07:13:12;;;;;;;15.18;13.38;;;;;;;19.22;23.85;102684.58;1757909;81;21581;-78
2022/03/21 07:15:38;;;;;;;16.57;13.88;;;;;;;19.35;23.58;102677.16;1758049;80;20876;-76
2022/03/21 07:18:06;;;;;;;15.05;13.30;;;;;;;19.24;23.41;102680.50;1758200;80;21064;-75
2022/03/21 07:20:32;;;;;;;16.48;13.32;;;;;;;18.99;23.71;102676.73;1758804;81;20912;-76
2022/03/21 07:23:00;;;;;;;17.05;13.85;;;;;;;19.05;23.80;102672.37;1758093;81;21188;-75
2022/03/21 07:25:27;;;;;;;18.32;14.38;;;;;;;19.26;23.54;102663.48;1757952;81;20993;-73
2022/03/21 07:27:53;;;;;;;13.68;12.25;;;;;;;19.46;23.26;102668.84;1758288;81;20865;-76
2022/03/21 07:30:20;;;;;;;17.82;13.65;;;;;;;19.58;23.04;102667.66;1758194;81;21497;-77
2022/03/21 07:32:47;;;;;;;17.62;12.10;;;;;;;19.83;22.83;102661.59;1758051;81;21339;-75
2022/03/21 07:35:15;;;;;;;16.10;12.03;;;;;;;20.00;22.67;102658.66;1758179;81;21129;-75
2022/03/21 07:37:49;;;;;;;14.95;11.68;;;;;;;19.83;22.24;102653.61;1758163;81;20948;-76
2022/03/21 07:40:16;;;;;;;19.87;12.68;;;;;;;19.75;22.79;102663.45;1757897;81;21430;-77
2022/03/21 07:42:46;;;;;;;14.58;13.08;;;;;;;19.80;22.59;102651.16;1758186;81;21370;-77
2022/03/21 07:47:59;;;;;;;14.10;11.45;;;;;;;19.96;22.49;102644.33;1758009;80;21221;-75
2022/03/21 07:50:28;;;;;;;16.20;12.98;;;;;;;19.83;22.57;102650.49;1757849;81;20876;-77
2022/03/21 07:52:57;;;;;;;13.98;12.35;;;;;;;19.90;22.43;102640.28;1758127;81;20869;-75
2022/03/21 07:55:23;;;;;;;12.78;11.53;;;;;;;19.94;22.44;102640.42;1758036;80;20928;-75
2022/03/21 07:57:51;;;;;;;12.95;11.12;;;;;;;20.23;22.55;102646.45;1758030;80;20978;-75
2022/03/21 08:00:18;;;;;;;13.88;11.10;;;;;;;20.52;22.07;102638.25;1758145;81;21229;-76
2022/03/21 08:02:45;;;;;;;13.00;10.32;;;;;;;20.85;22.42;102636.37;1757908;81;20880;-76
2022/03/21 08:05:13;;;;;;;12.60;10.00;;;;;;;21.06;21.61;102633.12;1757988;81;21528;-77
2022/03/21 08:07:41;;;;;;;11.60;10.40;;;;;;;21.09;21.48;102631.55;1757880;81;20940;-75
2022/03/21 08:10:09;;;;;;;11.03;9.70;;;;;;;21.02;21.61;102627.14;1757964;81;20853;-76
2022/03/21 08:12:38;;;;;;;12.98;10.48;;;;;;;21.10;21.30;102618.59;1758196;81;21903;-76
2022/03/21 08:15:06;;;;;;;11.15;9.90;;;;;;;21.03;21.69;102621.31;1757831;81;20853;-75
2022/03/21 08:17:37;;;;;;;11.80;8.48;;;;;;;21.09;21.33;102612.38;1758014;81;21381;-76
2022/03/21 08:20:10;;;;;;;14.18;10.38;;;;;;;21.39;21.58;102611.11;1694337;83;21342;-76
2022/03/21 08:22:37;;;;;;;8.53;7.62;;;;;;;21.64;21.18;102604.81;1703804;84;20933;-76
2022/03/21 08:25:07;;;;;;;10.20;8.68;;;;;;;21.92;21.27;102602.23;1703863;84;22170;-77
2022/03/21 08:27:36;;;;;;;8.55;7.53;;;;;;;22.26;20.66;102602.31;1703880;84;20902;-76
2022/03/21 08:30:03;;;;;;;11.90;7.95;;;;;;;22.48;20.20;102597.95;1703737;84;20968;-76
2022/03/21 08:32:31;;;;;;;7.55;6.75;;;;;;;22.30;19.93;102596.25;1703842;84;20956;-77
2022/03/21 08:34:58;;;;;;;8.35;6.67;;;;;;;21.99;20.37;102598.60;1703947;84;20929;-76
2022/03/21 08:37:25;;;;;;;6.03;5.42;;;;;;;22.02;20.20;102593.50;1702142;84;21108;-76
2022/03/21 08:39:53;;;;;;;7.05;5.25;;;;;;;21.93;20.29;102593.72;1708638;84;20988;-76
2022/03/21 08:42:20;;;;;;;6.65;5.25;;;;;;;21.78;19.99;102586.39;1708711;84;21055;-75
2022/03/21 08:44:47;;;;;;;6.03;4.78;;;;;;;21.60;20.13;102576.63;1708731;84;20897;-74
2022/03/21 08:47:15;;;;;;;9.43;5.62;;;;;;;21.47;20.10;102574.52;1708589;84;20905;-73
2022/03/21 08:49:42;;;;;;;6.62;5.53;;;;;;;21.31;20.47;102584.97;1708449;83;21174;-75
2022/03/21 08:52:09;;;;;;;7.28;4.70;;;;;;;21.00;20.87;102581.05;1708478;84;21461;-76
2022/03/21 08:54:36;;;;;;;6.10;5.47;;;;;;;21.15;20.66;102584.41;1708580;84;20913;-77
2022/03/21 08:57:04;;;;;;;5.17;3.95;;;;;;;21.22;20.42;102578.14;1708422;84;20948;-75
2022/03/21 08:59:32;;;;;;;4.65;4.12;;;;;;;21.13;21.05;102576.16;1708928;84;20885;-74
2022/03/21 09:01:59;;;;;;;5.67;3.50;;;;;;;21.13;21.04;102571.67;1708597;84;21246;-75
2022/03/21 09:04:27;;;;;;;3.47;3.17;;;;;;;21.10;21.04;102574.08;1708413;84;20949;-75
2022/03/21 09:06:55;;;;;;;5.25;2.92;;;;;;;20.83;20.93;102562.30;1708316;84;20934;-75
2022/03/21 09:09:22;;;;;;;4.12;3.15;;;;;;;20.73;21.01;102563.91;1708531;83;21474;-73
2022/03/21 09:11:51;;;;;;;3.83;2.77;;;;;;;20.59;21.33;102560.06;1708508;84;20893;-76
2022/03/21 09:14:18;;;;;;;4.25;2.70;;;;;;;20.58;21.31;102556.52;1708436;84;21136;-74
2022/03/21 09:16:46;;;;;;;6.08;2.80;;;;;;;20.71;21.04;102555.16;1708729;83;20909;-73
2022/03/21 09:19:13;;;;;;;4.95;2.72;;;;;;;20.72;20.94;102564.01;1708479;83;20889;-75
2022/03/21 09:21:41;;;;;;;3.98;2.33;;;;;;;20.69;20.72;102551.76;1708426;84;20992;-75
2022/03/21 09:24:10;;;;;;;4.53;2.20;;;;;;;20.67;21.15;102550.52;1708831;84;21355;-76
2022/03/21 09:26:37;;;;;;;3.00;2.35;;;;;;;20.70;20.34;102545.48;1708562;84;22039;-76
2022/03/21 09:29:04;;;;;;;3.27;1.62;;;;;;;20.71;20.56;102548.50;1708456;83;20915;-75
2022/03/21 09:31:33;;;;;;;5.17;2.17;;;;;;;20.76;20.84;102541.01;1708438;83;21043;-76
2022/03/21 09:33:59;;;;;;;3.85;1.77;;;;;;;20.95;20.08;102527.68;1708484;83;21052;-76
2022/03/21 09:36:26;;;;;;;3.08;2.12;;;;;;;20.89;20.19;102542.31;1708788;84;21402;-76
2022/03/21 09:38:53;;;;;;;5.37;2.00;;;;;;;20.91;20.45;102536.38;1708420;83;21918;-77
2022/03/21 09:41:25;;;;;;;2.40;2.10;;;;;;;20.94;20.23;102529.48;1708347;84;21015;-76
2022/03/21 09:43:55;;;;;;;7.25;2.45;;;;;;;20.85;20.33;102522.16;1708465;84;20929;-77
2022/03/21 09:46:22;;;;;;;3.98;1.75;;;;;;;20.82;20.13;102533.06;1708364;84;20968;-77
2022/03/21 09:48:53;;;;;;;2.62;1.85;;;;;;;20.58;20.30;102528.53;1708657;83;21518;-77
2022/03/21 09:51:25;;;;;;;4.65;1.67;;;;;;;20.53;21.02;102533.81;1708643;83;21088;-76
2022/03/21 09:53:54;;;;;;;3.37;2.40;;;;;;;20.83;20.71;102517.41;1708692;84;20956;-75
2022/03/21 09:56:21;;;;;;;3.22;1.92;;;;;;;20.93;20.29;102516.27;1708588;84;21003;-76
2022/03/21 09:58:48;;;;;;;6.05;1.90;;;;;;;20.86;20.25;102501.20;1708420;84;20944;-75
2022/03/21 10:01:16;;;;;;;7.65;2.08;;;;;;;20.82;20.63;102508.56;1708721;84;20897;-75
2022/03/21 10:03:43;;;;;;;3.80;2.12;;;;;;;21.13;20.47;102513.45;1708554;83;21245;-76
2022/03/21 10:06:33;;;;;;;3.40;2.10;;;;;;;21.50;19.90;102511.56;1708400;84;20987;-76
2022/03/21 10:09:19;;;;;;;9.28;2.45;;;;;;;21.75;19.93;102503.00;1708395;84;20925;-75
2022/03/21 10:11:55;;;;;;;2.47;1.77;;;;;;;21.40;19.79;102506.52;1708344;83;20870;-76
2022/03/21 10:14:28;;;;;;;3.87;1.72;;;;;;;20.99;20.38;102499.83;1708475;84;21375;-75
2022/03/21 10:17:12;;;;;;;6.58;1.85;;;;;;;20.83;20.62;102505.41;1708567;83;21850;-74
2022/03/21 10:19:49;;;;;;;2.77;2.17;;;;;;;20.61;20.76;102492.80;1708410;83;20909;-74
2022/03/21 10:22:21;;;;;;;2.87;1.98;;;;;;;20.34;21.02;102487.13;1708441;84;20932;-75
2022/03/21 10:24:51;;;;;;;3.25;2.20;;;;;;;20.55;21.33;102489.23;1708399;84;20897;-76
2022/03/21 10:27:39;;;;;;;3.02;2.40;;;;;;;20.80;21.14;102481.16;1708577;84;21350;-75
2022/03/21 10:30:10;;;;;;;5.00;2.27;;;;;;;21.07;21.31;102483.58;1708385;83;21259;-76
2022/03/21 10:32:42;;;;;;;6.08;2.80;;;;;;;21.46;20.92;102476.73;1708140;84;20921;-75
2022/03/21 10:35:24;;;;;;;5.00;2.22;;;;;;;21.59;20.38;102473.94;1708398;83;20991;-76
2022/03/21 10:38:00;;;;;;;4.15;2.10;;;;;;;21.52;20.39;102466.42;1708716;83;20980;-75
2022/03/21 10:40:34;;;;;;;6.15;1.57;;;;;;;21.26;20.88;102456.86;1714149;83;20873;-76
2022/03/21 10:43:06;;;;;;;3.83;2.42;;;;;;;20.77;21.45;102452.55;1712672;83;21823;-75
2022/03/21 10:45:43;;;;;;;4.85;2.42;;;;;;;20.67;21.70;102450.55;1714243;83;20949;-75
2022/03/21 10:48:16;;;;;;;5.75;2.40;;;;;;;20.79;21.58;102437.30;1714226;83;20988;-76
2022/03/21 10:52:38;;;;;;;5.25;2.05;;;;;;;20.92;21.69;102434.08;1797841;79;23268;-77
2022/03/21 10:55:07;;;;;;;3.98;1.75;;;;;;;20.84;21.82;102423.13;1758341;80;21397;-76
2022/03/21 10:57:36;;;;;;;2.87;2.15;;;;;;;20.98;21.69;102422.92;1758292;80;21239;-76
2022/03/21 11:00:24;;;;;;;6.10;2.05;;;;;;;20.77;21.75;102411.22;1758402;81;20961;-76
2022/03/21 11:03:09;;;;;;;3.67;1.82;;;;;;;20.42;22.24;102410.64;1758238;80;20973;-75
2022/03/21 11:05:38;;;;;;;5.22;1.67;;;;;;;20.41;22.54;102407.59;1758357;81;20944;-76
2022/03/21 11:08:07;;;;;;;5.12;1.75;;;;;;;20.56;22.60;102406.95;1758370;80;20900;-77
2022/03/21 11:10:35;;;;;;;5.85;1.70;;;;;;;20.48;22.65;102406.20;1758275;80;21262;-76
2022/03/21 11:13:06;;;;;;;4.05;2.22;;;;;;;20.49;22.84;102403.89;1758222;80;20971;-77
2022/03/21 11:15:35;;;;;;;3.42;1.35;;;;;;;20.60;22.87;102399.98;1758265;81;21540;-73
2022/03/21 11:18:05;;;;;;;3.50;1.52;;;;;;;20.70;23.06;102396.17;1758325;81;20966;-75
2022/03/21 11:20:32;;;;;;;3.50;1.65;;;;;;;20.57;23.24;102392.72;1758239;80;20889;-77
2022/03/21 11:23:00;;;;;;;4.33;2.33;;;;;;;20.57;23.28;102390.89;1758237;81;21821;-77
2022/03/21 11:25:32;;;;;;;3.08;1.90;;;;;;;20.53;23.28;102394.71;1758301;80;20923;-75
2022/03/21 11:28:49;;;;;;;3.50;1.70;;;;;;;20.59;23.42;102388.12;1758854;80;20932;-74
2022/03/21 11:31:38;;;;;;;4.35;2.20;;;;;;;20.61;23.91;102380.38;1758317;81;21480;-75
2022/03/21 11:34:29;;;;;;;2.60;1.65;;;;;;;20.59;23.54;102375.64;1758420;80;20936;-77
2022/03/21 11:36:58;;;;;;;6.90;1.65;;;;;;;20.54;24.12;102378.23;1758231;81;21644;-75
2022/03/21 11:39:26;;;;;;;3.55;2.17;;;;;;;20.20;24.30;102377.56;1758269;80;21607;-75
2022/03/21 11:42:11;;;;;;;2.33;1.60;;;;;;;19.77;24.78;102379.82;1758316;81;21018;-75